createdAt,value
2019-02-24T00:01:59.890Z,12.03
2019-02-24T00:04:28.672Z,6.83
2019-02-24T00:06:58.640Z,7.55
2019-02-24T00:09:27.569Z,13.13
2019-02-24T00:11:56.637Z,9.80
2019-02-24T00:14:25.783Z,6.53
2019-02-24T00:16:54.785Z,7.50
2019-02-24T00:19:24.208Z,7.83
2019-02-24T00:21:53.094Z,17.05
2019-02-24T00:24:22.168Z,12.37
2019-02-24T00:26:50.835Z,5.20
2019-02-24T00:29:19.593Z,5.37
2019-02-24T00:31:48.163Z,10.80
2019-02-24T00:34:16.919Z,4.45
2019-02-24T00:36:45.658Z,5.72
2019-02-24T00:39:14.291Z,7.92
2019-02-24T00:41:43.730Z,9.98
2019-02-24T00:44:12.869Z,7.00
2019-02-24T00:46:41.879Z,8.75
2019-02-24T00:49:10.911Z,7.03
2019-02-24T00:51:40.111Z,10.30
2019-02-24T00:54:09.653Z,12.15
2019-02-24T00:56:38.298Z,9.88
2019-02-24T00:59:07.057Z,9.03
2019-02-24T01:01:35.577Z,8.40
2019-02-24T01:04:04.190Z,6.78
2019-02-24T01:06:32.748Z,5.90
2019-02-24T01:09:01.257Z,4.80
2019-02-24T01:11:30.092Z,21.90
2019-02-24T01:13:59.179Z,7.83
2019-02-24T01:16:27.780Z,10.23
2019-02-24T01:18:56.340Z,34.73
2019-02-24T01:21:25.170Z,24.15
2019-02-24T01:23:54.183Z,9.83
2019-02-24T01:26:23.840Z,18.10
2019-02-24T01:28:52.832Z,20.75
2019-02-24T01:31:21.972Z,26.68
2019-02-24T01:33:51.119Z,12.30
2019-02-24T01:36:20.536Z,15.95
2019-02-24T01:38:49.302Z,17.65
2019-02-24T01:41:18.156Z,12.13
2019-02-24T01:43:48.105Z,8.90
2019-02-24T01:46:17.262Z,11.15
2019-02-24T01:48:45.811Z,8.68
2019-02-24T01:51:15.489Z,7.95
2019-02-24T01:53:45.289Z,8.73
2019-02-24T01:56:13.919Z,7.35
2019-02-24T01:58:42.588Z,11.25
2019-02-24T02:01:11.127Z,9.53
2019-02-24T02:03:39.671Z,8.08
2019-02-24T02:06:08.929Z,7.97
2019-02-24T02:08:38.171Z,13.83
2019-02-24T02:11:06.894Z,14.75
2019-02-24T02:13:35.683Z,16.37
2019-02-24T02:16:05.690Z,13.68
2019-02-24T02:18:34.336Z,12.40
2019-02-24T02:21:03.663Z,13.98
2019-02-24T02:23:32.462Z,13.90
2019-02-24T02:26:02.285Z,10.58
2019-02-24T02:28:31.482Z,13.45
2019-02-24T02:31:00.312Z,13.38
2019-02-24T02:33:29.099Z,16.32
2019-02-24T02:35:58.071Z,11.57
2019-02-24T02:38:27.012Z,14.70
2019-02-24T02:40:55.976Z,14.15
2019-02-24T02:43:24.640Z,14.90
2019-02-24T02:45:54.467Z,15.05
2019-02-24T02:48:23.444Z,13.68
2019-02-24T02:50:52.297Z,13.95
2019-02-24T02:53:21.323Z,9.45
2019-02-24T02:55:50.445Z,12.45
2019-02-24T02:58:19.434Z,16.95
2019-02-24T03:00:48.191Z,15.83
2019-02-24T03:03:17.235Z,17.27
2019-02-24T03:05:47.813Z,16.25
2019-02-24T03:08:16.772Z,10.60
2019-02-24T03:10:45.596Z,13.53
2019-02-24T03:13:14.402Z,12.13
2019-02-24T03:15:43.373Z,13.35
2019-02-24T03:18:12.371Z,10.50
2019-02-24T03:20:40.942Z,11.30
2019-02-24T03:23:09.595Z,14.78
2019-02-24T03:25:38.213Z,14.45
2019-02-24T03:28:06.857Z,20.10
2019-02-24T03:30:35.477Z,15.70
2019-02-24T03:33:04.096Z,18.37
2019-02-24T03:35:33.259Z,20.23
2019-02-24T03:38:02.192Z,22.35
2019-02-24T03:40:31.386Z,23.25
2019-02-24T03:43:00.517Z,22.80
2019-02-24T03:45:29.438Z,23.55
2019-02-24T03:47:59.171Z,23.27
2019-02-24T03:50:27.964Z,19.75
2019-02-24T03:52:57.934Z,15.13
2019-02-24T03:55:26.959Z,16.23
2019-02-24T03:57:56.135Z,16.05
2019-02-24T04:00:25.136Z,16.07
2019-02-24T04:02:54.013Z,14.00
2019-02-24T04:05:23.219Z,12.47
2019-02-24T04:07:52.310Z,16.95
2019-02-24T04:10:21.320Z,13.40
2019-02-24T04:12:50.091Z,13.72
2019-02-24T04:15:19.196Z,13.03
2019-02-24T04:17:47.969Z,15.20
2019-02-24T04:20:18.008Z,14.18
2019-02-24T04:22:46.766Z,16.95
2019-02-24T04:25:15.568Z,19.85
2019-02-24T04:27:44.451Z,17.52
2019-02-24T04:30:13.589Z,15.00
2019-02-24T04:32:43.663Z,16.85
2019-02-24T04:35:12.704Z,12.55
2019-02-24T04:37:41.752Z,13.22
2019-02-24T04:40:10.878Z,12.80
2019-02-24T04:42:39.773Z,11.43
2019-02-24T04:45:09.959Z,13.90
2019-02-24T04:47:38.533Z,14.58
2019-02-24T04:50:07.799Z,18.73
2019-02-24T04:52:36.353Z,11.57
2019-02-24T04:55:05.898Z,11.85
2019-02-24T04:57:34.711Z,12.05
2019-02-24T05:00:03.466Z,11.28
2019-02-24T05:02:32.536Z,9.68
2019-02-24T05:05:01.795Z,9.13
2019-02-24T05:07:30.652Z,8.05
2019-02-24T05:10:00.511Z,9.53
2019-02-24T05:12:29.583Z,11.60
2019-02-24T05:14:58.476Z,10.32
2019-02-24T05:17:27.568Z,11.80
2019-02-24T05:19:56.598Z,11.20
2019-02-24T05:22:25.963Z,11.30
2019-02-24T05:24:54.864Z,10.90
2019-02-24T05:27:23.744Z,10.88
2019-02-24T05:29:52.736Z,11.05
2019-02-24T05:32:21.623Z,11.08
2019-02-24T05:34:50.393Z,10.78
2019-02-24T05:37:18.924Z,13.85
2019-02-24T05:39:48.516Z,12.00
2019-02-24T05:42:17.159Z,12.05
2019-02-24T05:44:46.338Z,11.25
2019-02-24T05:47:15.505Z,10.70
2019-02-24T05:49:44.283Z,11.28
2019-02-24T05:52:13.900Z,12.15
2019-02-24T05:54:42.889Z,13.20
2019-02-24T05:57:11.886Z,12.55
2019-02-24T05:59:40.850Z,15.38
2019-02-24T06:02:09.695Z,13.03
2019-02-24T06:04:40.200Z,14.05
2019-02-24T06:07:09.177Z,19.70
2019-02-24T06:09:38.064Z,17.05
2019-02-24T06:12:07.037Z,19.77
2019-02-24T06:14:36.060Z,16.90
2019-02-24T06:17:04.918Z,15.40
2019-02-24T06:19:35.137Z,14.25
2019-02-24T06:22:05.077Z,15.53
2019-02-24T06:24:34.051Z,13.45
2019-02-24T06:27:02.759Z,18.77
2019-02-24T06:29:31.925Z,13.22
2019-02-24T06:32:01.076Z,12.05
2019-02-24T06:34:29.794Z,10.38
2019-02-24T06:36:58.893Z,12.90
2019-02-24T06:39:27.783Z,15.90
2019-02-24T06:41:56.497Z,18.10
2019-02-24T06:44:25.534Z,14.20
2019-02-24T06:46:54.498Z,18.82
2019-02-24T06:49:23.392Z,15.13
2019-02-24T06:51:52.754Z,8.90
2019-02-24T06:54:21.846Z,9.88
2019-02-24T06:56:50.941Z,9.35
2019-02-24T06:59:20.183Z,9.63
2019-02-24T07:01:49.070Z,9.80
2019-02-24T07:04:17.737Z,10.80
2019-02-24T07:06:46.818Z,9.35
2019-02-24T07:09:16.436Z,8.65
2019-02-24T07:11:45.518Z,7.10
2019-02-24T07:14:14.587Z,11.03
2019-02-24T07:16:43.472Z,6.25
2019-02-24T07:19:12.591Z,6.75
2019-02-24T07:21:41.504Z,5.83
2019-02-24T07:24:10.493Z,13.22
2019-02-24T07:26:39.934Z,13.40
2019-02-24T07:29:08.941Z,6.72
2019-02-24T07:31:37.820Z,6.42
2019-02-24T07:34:06.685Z,7.75
2019-02-24T07:36:35.436Z,10.50
2019-02-24T07:39:04.584Z,5.50
2019-02-24T07:41:33.598Z,9.20
2019-02-24T07:44:02.630Z,7.35
2019-02-24T07:46:34.247Z,5.33
2019-02-24T07:49:03.476Z,6.95
2019-02-24T07:51:32.125Z,6.70
2019-02-24T07:54:00.794Z,4.10
2019-02-24T07:56:30.414Z,6.30
2019-02-24T07:58:59.099Z,6.30
2019-02-24T08:01:28.213Z,6.42
2019-02-24T08:03:59.012Z,5.70
2019-02-24T08:06:27.892Z,7.83
2019-02-24T08:08:57.731Z,7.35
2019-02-24T08:11:26.823Z,4.95
2019-02-24T08:13:55.793Z,5.15
2019-02-24T08:16:24.894Z,4.45
2019-02-24T08:18:53.778Z,3.40
2019-02-24T08:21:22.601Z,2.55
2019-02-24T08:23:51.606Z,3.37
2019-02-24T08:26:20.595Z,6.60
2019-02-24T08:28:49.250Z,8.08
2019-02-24T08:31:17.876Z,16.42
2019-02-24T08:33:46.865Z,9.60
2019-02-24T08:36:15.693Z,6.83
2019-02-24T08:38:44.695Z,3.00
2019-02-24T08:41:14.068Z,2.98
2019-02-24T08:43:43.726Z,3.87
2019-02-24T08:46:12.998Z,3.30
2019-02-24T08:48:42.255Z,3.40
2019-02-24T08:51:11.616Z,4.30
2019-02-24T08:53:40.626Z,5.40
2019-02-24T08:56:11.094Z,7.03
2019-02-24T08:58:40.242Z,9.08
2019-02-24T09:01:09.294Z,6.72
2019-02-24T09:03:38.618Z,7.67
2019-02-24T09:06:07.628Z,5.40
2019-02-24T09:08:37.303Z,6.60
2019-02-24T09:11:06.291Z,4.37
2019-02-24T09:13:35.317Z,4.62
2019-02-24T09:16:04.019Z,4.47
2019-02-24T09:18:32.597Z,6.47
2019-02-24T09:21:01.240Z,5.55
2019-02-24T09:23:29.907Z,3.92
2019-02-24T09:25:58.589Z,6.85
2019-02-24T09:28:27.450Z,6.72
2019-02-24T09:31:00.745Z,3.30
2019-02-24T09:33:27.276Z,5.30
2019-02-24T09:35:56.463Z,4.42
2019-02-24T09:38:25.234Z,4.35
2019-02-24T09:40:54.303Z,4.47
2019-02-24T09:43:23.552Z,2.70
2019-02-24T09:45:52.407Z,4.60
2019-02-24T09:48:21.383Z,4.45
2019-02-24T09:50:50.478Z,3.92
2019-02-24T09:53:19.370Z,3.95
2019-02-24T09:55:48.527Z,5.55
2019-02-24T09:58:17.353Z,1.85
2019-02-24T10:00:46.324Z,3.95
2019-02-24T10:03:15.811Z,6.37
2019-02-24T10:05:44.440Z,3.15
2019-02-24T10:08:13.037Z,2.85
2019-02-24T10:10:41.655Z,3.05
2019-02-24T10:13:10.837Z,5.97
2019-02-24T10:15:40.633Z,4.50
2019-02-24T10:18:09.997Z,3.15
2019-02-24T10:20:38.794Z,3.58
2019-02-24T10:23:07.685Z,5.03
2019-02-24T10:25:36.719Z,3.70
2019-02-24T10:28:05.871Z,3.05
2019-02-24T10:30:34.832Z,5.45
2019-02-24T10:33:03.972Z,5.12
2019-02-24T10:35:32.908Z,5.78
2019-02-24T10:38:01.879Z,3.60
2019-02-24T10:40:31.048Z,2.45
2019-02-24T10:42:59.750Z,2.58
2019-02-24T10:45:28.873Z,1.65
2019-02-24T10:47:57.652Z,1.30
2019-02-24T10:50:26.698Z,1.30
2019-02-24T10:52:55.353Z,1.25
2019-02-24T10:55:24.289Z,2.27
2019-02-24T10:57:53.206Z,1.77
2019-02-24T11:00:23.107Z,1.30
2019-02-24T11:02:52.296Z,1.45
2019-02-24T11:05:22.316Z,1.20
2019-02-24T11:07:51.438Z,4.10
2019-02-24T11:10:21.137Z,1.25
2019-02-24T11:12:50.622Z,1.60
2019-02-24T11:15:19.167Z,3.35
2019-02-24T11:17:48.691Z,1.70
2019-02-24T11:20:18.547Z,1.98
2019-02-24T11:22:47.591Z,1.55
2019-02-24T11:25:16.638Z,1.72
2019-02-24T11:27:46.574Z,1.95
2019-02-24T11:30:15.699Z,1.60
2019-02-24T11:32:44.396Z,1.95
2019-02-24T11:35:13.308Z,2.20
2019-02-24T11:37:42.037Z,2.50
2019-02-24T11:40:16.481Z,2.85
2019-02-24T11:42:45.184Z,2.85
2019-02-24T11:45:14.357Z,3.95
2019-02-24T11:47:44.248Z,4.25
2019-02-24T11:50:13.779Z,3.55
2019-02-24T11:52:42.765Z,3.98
2019-02-24T11:55:12.025Z,5.00
2019-02-24T11:57:41.889Z,5.10
2019-02-24T12:00:17.247Z,3.95
2019-02-24T12:02:46.127Z,4.42
2019-02-24T12:05:15.250Z,6.60
2019-02-24T12:07:44.423Z,7.08
2019-02-24T12:10:13.638Z,7.30
2019-02-24T12:12:42.716Z,8.98
2019-02-24T12:15:12.368Z,11.22
2019-02-24T12:17:41.117Z,8.65
2019-02-24T12:20:11.223Z,10.48
2019-02-24T12:22:39.773Z,13.38
2019-02-24T12:25:09.812Z,11.97
2019-02-24T12:27:38.684Z,10.63
2019-02-24T12:30:10.261Z,15.55
2019-02-24T12:32:39.288Z,13.40
2019-02-24T12:35:08.148Z,13.68
2019-02-24T12:37:37.314Z,14.50
2019-02-24T12:40:08.642Z,14.55
2019-02-24T12:42:37.575Z,15.15
2019-02-24T12:45:10.576Z,16.67
2019-02-24T12:47:39.667Z,13.58
2019-02-24T12:50:15.748Z,14.90
2019-02-24T12:52:44.695Z,12.98
2019-02-24T12:55:14.663Z,13.70
2019-02-24T12:57:43.857Z,12.33
2019-02-24T13:00:21.313Z,12.28
2019-02-24T13:02:50.348Z,10.35
2019-02-24T13:05:19.188Z,12.37
2019-02-24T13:07:47.783Z,11.78
2019-02-24T13:10:20.331Z,10.30
2019-02-24T13:12:49.465Z,10.55
2019-02-24T13:15:18.666Z,13.03
2019-02-24T13:17:47.747Z,10.30
2019-02-24T13:20:16.789Z,11.78
2019-02-24T13:22:45.893Z,9.95
2019-02-24T13:25:15.320Z,11.48
2019-02-24T13:27:44.643Z,10.05
2019-02-24T13:30:15.731Z,10.40
2019-02-24T13:32:44.964Z,11.00
2019-02-24T13:35:13.985Z,9.10
2019-02-24T13:37:43.179Z,10.65
2019-02-24T13:40:18.173Z,12.58
2019-02-24T13:42:47.940Z,9.70
2019-02-24T13:45:17.897Z,11.00
2019-02-24T13:47:46.838Z,12.47
2019-02-24T13:50:16.209Z,12.98
2019-02-24T13:52:45.948Z,12.65
2019-02-24T13:55:15.316Z,15.28
2019-02-24T13:57:44.882Z,12.07
2019-02-24T14:00:16.004Z,12.00
2019-02-24T14:02:45.151Z,11.97
2019-02-24T14:05:14.030Z,12.05
2019-02-24T14:07:42.948Z,12.95
2019-02-24T14:10:13.989Z,10.55
2019-02-24T14:12:43.111Z,14.30
2019-02-24T14:15:15.732Z,11.83
2019-02-24T14:17:44.705Z,12.43
2019-02-24T14:20:18.222Z,14.10
2019-02-24T14:22:47.316Z,12.43
2019-02-24T14:25:17.120Z,14.63
2019-02-24T14:27:45.653Z,15.63
2019-02-24T14:30:18.095Z,13.30
2019-02-24T14:32:46.971Z,13.90
2019-02-24T14:35:18.973Z,19.65
2019-02-24T14:37:48.076Z,15.40
2019-02-24T14:40:17.172Z,14.40
2019-02-24T14:42:46.115Z,20.25
2019-02-24T14:45:22.709Z,15.38
2019-02-24T14:47:51.779Z,14.78
2019-02-24T14:50:20.691Z,16.23
2019-02-24T14:52:49.558Z,17.55
2019-02-24T14:55:19.663Z,19.67
2019-02-24T14:57:48.564Z,13.45
2019-02-24T15:00:18.689Z,14.43
2019-02-24T15:02:47.919Z,16.73
2019-02-24T15:05:17.282Z,11.93
2019-02-24T15:07:46.527Z,9.88
2019-02-24T15:10:18.535Z,8.25
2019-02-24T15:12:47.179Z,13.80
2019-02-24T15:15:32.482Z,24.77
2019-02-24T15:17:56.648Z,12.88
2019-02-24T15:20:26.053Z,16.17
2019-02-24T15:22:55.361Z,16.60
2019-02-24T15:25:24.508Z,16.40
2019-02-24T15:27:53.573Z,16.02
2019-02-24T15:30:27.733Z,15.80
2019-02-24T15:32:56.616Z,16.93
2019-02-24T15:35:25.466Z,17.00
2019-02-24T15:37:54.355Z,18.07
2019-02-24T15:40:23.444Z,25.57
2019-02-24T15:42:52.664Z,18.55
2019-02-24T15:45:21.710Z,20.97
2019-02-24T15:47:50.742Z,10.93
2019-02-24T15:50:19.599Z,16.82
2019-02-24T15:52:48.509Z,26.77
2019-02-24T15:55:19.036Z,20.25
2019-02-24T15:57:48.137Z,20.72
2019-02-24T16:00:20.158Z,20.08
2019-02-24T16:02:48.814Z,21.55
2019-02-24T16:05:17.422Z,16.75
2019-02-24T16:07:46.421Z,20.62
2019-02-24T16:10:20.367Z,18.25
2019-02-24T16:12:50.287Z,20.05
2019-02-24T16:15:22.153Z,23.87
2019-02-24T16:17:51.342Z,22.48
2019-02-24T16:20:25.062Z,20.37
2019-02-24T16:22:53.984Z,19.05
2019-02-24T16:25:22.855Z,22.80
2019-02-24T16:27:52.171Z,20.37
2019-02-24T16:30:21.248Z,20.20
2019-02-24T16:32:50.393Z,19.07
2019-02-24T16:35:19.296Z,18.23
2019-02-24T16:37:48.449Z,28.12
2019-02-24T16:40:24.820Z,18.30
2019-02-24T16:42:53.658Z,26.40
2019-02-24T16:45:22.733Z,18.23
2019-02-24T16:47:51.702Z,24.77
2019-02-24T16:50:27.089Z,23.75
2019-02-24T16:52:56.367Z,19.30
2019-02-24T16:55:25.955Z,17.07
2019-02-24T16:57:54.919Z,18.10
2019-02-24T17:00:25.778Z,17.30
2019-02-24T17:02:55.021Z,20.30
2019-02-24T17:05:24.957Z,25.52
2019-02-24T17:07:53.725Z,22.32
2019-02-24T17:10:26.451Z,18.02
2019-02-24T17:12:55.152Z,16.62
2019-02-24T17:15:23.908Z,14.10
2019-02-24T17:17:53.878Z,11.65
2019-02-24T17:20:30.000Z,7.87
2019-02-24T17:22:58.969Z,7.67
2019-02-24T17:25:27.973Z,10.08
2019-02-24T17:27:56.583Z,12.23
2019-02-24T17:30:25.418Z,10.13
2019-02-24T17:32:54.027Z,9.43
2019-02-24T17:35:22.806Z,9.33
2019-02-24T17:37:51.700Z,8.18
2019-02-24T17:40:22.228Z,7.33
2019-02-24T17:42:51.216Z,5.90
2019-02-24T17:45:20.247Z,8.85
2019-02-24T17:47:49.445Z,6.35
2019-02-24T17:50:18.893Z,9.93
2019-02-24T17:52:47.901Z,5.80
2019-02-24T17:55:20.090Z,8.65
2019-02-24T17:57:49.172Z,8.00
2019-02-24T18:00:25.118Z,8.60
2019-02-24T18:02:54.397Z,5.22
2019-02-24T18:05:23.411Z,8.90
2019-02-24T18:07:52.413Z,6.55
2019-02-24T18:10:21.057Z,6.28
2019-02-24T18:12:49.992Z,5.40
2019-02-24T18:15:18.887Z,5.42
2019-02-24T18:17:47.858Z,6.08
2019-02-24T18:20:18.611Z,4.92
2019-02-24T18:22:47.684Z,7.40
2019-02-24T18:25:16.705Z,10.65
2019-02-24T18:27:45.382Z,10.40
2019-02-24T18:30:30.886Z,8.23
2019-02-24T18:32:59.977Z,6.72
2019-02-24T18:35:29.310Z,5.62
2019-02-24T18:37:58.229Z,5.53
2019-02-24T18:40:27.362Z,5.70
2019-02-24T18:43:00.323Z,5.30
2019-02-24T18:45:26.943Z,5.20
2019-02-24T18:47:55.698Z,5.90
2019-02-24T18:50:24.517Z,8.93
2019-02-24T18:52:53.533Z,9.33
2019-02-24T18:55:22.252Z,10.25
2019-02-24T18:57:51.002Z,7.35
2019-02-24T19:00:21.640Z,7.40
2019-02-24T19:02:50.817Z,5.70
2019-02-24T19:05:20.154Z,5.65
2019-02-24T19:07:49.181Z,7.72
2019-02-24T19:10:21.210Z,7.20
2019-02-24T19:12:50.953Z,7.70
2019-02-24T19:15:22.221Z,8.05
2019-02-24T19:17:51.240Z,5.87
2019-02-24T19:20:23.892Z,6.55
2019-02-24T19:22:52.985Z,6.45
2019-02-24T19:25:22.081Z,4.92
2019-02-24T19:27:51.646Z,5.60
2019-02-24T19:30:20.890Z,6.58
2019-02-24T19:32:49.886Z,7.50
2019-02-24T19:35:22.244Z,8.90
2019-02-24T19:37:51.499Z,27.77
2019-02-24T19:40:20.737Z,13.93
2019-02-24T19:42:50.655Z,8.10
2019-02-24T19:45:21.584Z,8.03
2019-02-24T19:47:50.241Z,7.03
2019-02-24T19:50:19.374Z,6.50
2019-02-24T19:52:48.582Z,7.17
2019-02-24T19:55:17.906Z,7.65
2019-02-24T19:57:47.812Z,5.90
2019-02-24T20:00:24.857Z,7.40
2019-02-24T20:02:53.995Z,7.10
2019-02-24T20:05:23.324Z,12.58
2019-02-24T20:07:52.936Z,7.60
2019-02-24T20:10:28.042Z,7.60
2019-02-24T20:12:57.000Z,8.33
2019-02-24T20:15:26.089Z,7.33
2019-02-24T20:17:55.276Z,7.62
2019-02-24T20:20:24.301Z,9.05
2019-02-24T20:22:53.585Z,7.72
2019-02-24T20:25:23.035Z,8.15
2019-02-24T20:27:51.827Z,8.60
2019-02-24T20:30:28.923Z,6.90
2019-02-24T20:32:57.951Z,6.72
2019-02-24T20:35:27.036Z,5.70
2019-02-24T20:37:56.262Z,6.67
2019-02-24T20:40:25.635Z,6.10
2019-02-24T20:42:54.739Z,6.00
2019-02-24T20:45:24.558Z,5.10
2019-02-24T20:47:53.947Z,5.60
2019-02-24T20:50:27.959Z,7.15
2019-02-24T20:52:56.844Z,5.40
2019-02-24T20:55:25.733Z,10.65
2019-02-24T20:57:54.829Z,6.55
2019-02-24T21:00:26.583Z,11.03
2019-02-24T21:02:56.771Z,8.03
2019-02-24T21:05:25.554Z,7.15
2019-02-24T21:07:54.481Z,7.15
2019-02-24T21:10:23.917Z,7.40
2019-02-24T21:12:53.027Z,7.42
2019-02-24T21:15:21.641Z,7.03
2019-02-24T21:17:50.577Z,7.50
2019-02-24T21:20:22.065Z,6.95
2019-02-24T21:22:50.897Z,6.92
2019-02-24T21:25:19.807Z,8.80
2019-02-24T21:27:48.878Z,7.47
2019-02-24T21:30:18.475Z,7.65
2019-02-24T21:32:47.636Z,7.50
2019-02-24T21:35:17.452Z,10.08
2019-02-24T21:37:46.615Z,9.95
2019-02-24T21:40:19.073Z,8.40
2019-02-24T21:42:47.972Z,10.00
2019-02-24T21:45:24.315Z,8.75
2019-02-24T21:47:53.367Z,9.83
2019-02-24T21:50:23.077Z,9.60
2019-02-24T21:52:52.110Z,9.00
2019-02-24T21:55:21.395Z,10.70
2019-02-24T21:57:50.998Z,7.92
2019-02-24T22:00:21.578Z,10.65
2019-02-24T22:02:51.660Z,8.85
2019-02-24T22:05:20.652Z,10.10
2019-02-24T22:07:50.017Z,10.30
2019-02-24T22:10:18.966Z,9.88
2019-02-24T22:12:48.065Z,12.37
2019-02-24T22:15:25.436Z,8.40
2019-02-24T22:17:54.425Z,7.28
2019-02-24T22:20:23.368Z,9.90
2019-02-24T22:22:52.453Z,7.42
2019-02-24T22:25:21.422Z,9.90
2019-02-24T22:27:50.297Z,8.30
2019-02-24T22:30:22.648Z,8.25
2019-02-24T22:32:52.781Z,10.60
2019-02-24T22:35:21.601Z,7.50
2019-02-24T22:37:50.637Z,6.95
2019-02-24T22:40:19.901Z,8.53
2019-02-24T22:42:48.957Z,9.85
2019-02-24T22:45:19.982Z,6.22
2019-02-24T22:47:49.203Z,7.65
2019-02-24T22:50:19.129Z,6.22
2019-02-24T22:52:48.198Z,6.47
2019-02-24T22:55:17.808Z,7.00
2019-02-24T22:57:48.030Z,6.15
2019-02-24T23:00:46.616Z,11.30
2019-02-24T23:03:15.504Z,9.00
2019-02-24T23:05:44.726Z,5.25
2019-02-24T23:08:14.164Z,5.30
2019-02-24T23:10:43.404Z,4.55
2019-02-24T23:13:12.286Z,5.97
2019-02-24T23:15:41.672Z,5.92
2019-02-24T23:18:10.679Z,6.33
2019-02-24T23:20:39.778Z,5.50
2019-02-24T23:23:08.667Z,10.60
2019-02-24T23:25:37.761Z,4.58
2019-02-24T23:28:06.408Z,5.20
2019-02-24T23:30:35.195Z,5.30
2019-02-24T23:33:04.359Z,4.50
2019-02-24T23:35:34.573Z,4.30
2019-02-24T23:38:03.641Z,4.15
2019-02-24T23:40:32.743Z,4.12
2019-02-24T23:43:01.732Z,5.22
2019-02-24T23:45:32.224Z,4.95
2019-02-24T23:48:01.073Z,5.95
2019-02-24T23:50:30.356Z,6.33
2019-02-24T23:53:00.266Z,5.85
2019-02-24T23:55:29.411Z,7.33
2019-02-24T23:57:58.391Z,4.30
